Time;durP1;ratioP1;P1;durP2;ratioP2;P2;SDS_P1;SDS_P2;PMS_P1;PMS_P2;Temp;Humidity;BMP_temperature;BMP_pressure;BME280_temperature;BME280_humidity;BME280_pressure;Samples;Min_cycle;Max_cycle;Signal;HPM_P1;HPM_P2
2022/03/20 00:00:56;;;;;;;4.35;0.90;;;5.10;99.90;;;;;;5031557;28;20057;-74
2022/03/20 00:03:23;;;;;;;3.05;0.70;;;5.00;99.90;;;;;;5030381;28;20485;-74
2022/03/20 00:05:50;;;;;;;3.05;0.70;;;5.00;99.90;;;;;;5026949;28;20033;-74
2022/03/20 00:08:16;;;;;;;3.83;0.98;;;5.00;99.90;;;;;;5031536;28;20025;-74
2022/03/20 00:10:48;;;;;;;4.82;1.10;;;4.90;99.90;;;;;;5025958;28;20029;-73
2022/03/20 00:13:20;;;;;;;5.75;1.20;;;4.90;99.90;;;;;;5029086;28;20033;-74
2022/03/20 00:15:47;;;;;;;3.30;0.80;;;4.90;99.90;;;;;;5025826;28;20121;-74
2022/03/20 00:18:14;;;;;;;4.38;0.80;;;4.90;99.90;;;;;;5028812;28;20052;-74
2022/03/20 00:20:47;;;;;;;3.55;0.95;;;4.90;99.90;;;;;;5028573;28;20096;-74
2022/03/20 00:23:14;;;;;;;3.05;1.00;;;4.90;99.90;;;;;;5032127;28;20029;-74
2022/03/20 00:25:42;;;;;;;3.95;0.93;;;4.80;99.90;;;;;;5030860;28;20481;-74
2022/03/20 00:28:09;;;;;;;3.95;1.30;;;4.80;99.90;;;;;;5039938;28;20030;-73
2022/03/20 00:30:35;;;;;;;4.97;1.45;;;4.80;99.90;;;;;;5044434;28;20083;-74
2022/03/20 00:33:01;;;;;;;3.75;1.58;;;4.80;99.90;;;;;;5027765;28;20088;-73
2022/03/20 00:35:27;;;;;;;5.45;1.30;;;4.80;99.90;;;;;;5028183;28;20037;-74
2022/03/20 00:37:53;;;;;;;4.90;1.60;;;4.80;99.90;;;;;;5029667;28;20033;-74
2022/03/20 00:40:18;;;;;;;3.97;1.27;;;4.70;99.90;;;;;;5028287;28;20040;-73
2022/03/20 00:42:44;;;;;;;3.58;1.60;;;4.70;99.90;;;;;;5027761;28;20092;-73
2022/03/20 00:45:10;;;;;;;4.97;1.83;;;4.70;99.90;;;;;;5026766;28;20025;-73
2022/03/20 00:47:36;;;;;;;6.72;2.40;;;4.70;99.90;;;;;;5024575;28;20495;-74
2022/03/20 00:50:01;;;;;;;4.80;1.88;;;4.60;99.90;;;;;;5029487;28;20075;-74
2022/03/20 00:52:27;;;;;;;5.95;2.25;;;4.60;99.90;;;;;;5032448;28;20033;-74
2022/03/20 00:54:53;;;;;;;5.25;2.05;;;4.40;99.90;;;;;;5011598;28;20120;-74
2022/03/20 00:57:19;;;;;;;5.47;2.03;;;4.40;99.90;;;;;;5031954;28;20022;-74
2022/03/20 00:59:44;;;;;;;3.85;1.88;;;4.30;99.90;;;;;;5029605;28;20049;-74
2022/03/20 01:02:10;;;;;;;4.32;1.90;;;4.30;99.90;;;;;;5032461;28;20022;-73
2022/03/20 01:04:36;;;;;;;6.25;2.75;;;4.20;99.90;;;;;;5029220;28;20104;-74
2022/03/20 01:07:03;;;;;;;7.28;2.55;;;4.20;99.90;;;;;;5045023;28;20025;-73
2022/03/20 01:09:29;;;;;;;5.53;2.63;;;4.20;99.90;;;;;;5020808;28;20033;-74
2022/03/20 01:11:55;;;;;;;4.40;2.47;;;4.10;99.90;;;;;;5028299;28;20401;-74
2022/03/20 01:14:22;;;;;;;4.15;2.10;;;4.10;99.90;;;;;;5032690;28;20036;-73
2022/03/20 01:16:48;;;;;;;7.38;3.00;;;4.10;99.90;;;;;;5028717;28;20052;-74
2022/03/20 01:19:14;;;;;;;8.18;5.03;;;4.10;99.90;;;;;;5030054;28;20034;-73
2022/03/20 01:21:41;;;;;;;8.02;3.92;;;4.10;99.90;;;;;;5029957;28;20040;-73
2022/03/20 01:24:07;;;;;;;7.43;4.15;;;4.00;99.90;;;;;;5027863;28;20044;-73
2022/03/20 01:26:34;;;;;;;9.10;4.53;;;4.00;99.90;;;;;;5023363;28;20513;-74
2022/03/20 01:29:00;;;;;;;6.80;4.63;;;4.00;99.90;;;;;;5027130;28;20033;-74
2022/03/20 01:31:28;;;;;;;7.78;4.20;;;3.90;99.90;;;;;;5010000;28;20025;-73
2022/03/20 01:33:53;;;;;;;10.20;4.75;;;3.90;99.90;;;;;;5032556;28;20367;-74
2022/03/20 01:36:19;;;;;;;9.25;4.70;;;3.90;99.90;;;;;;5010448;28;20055;-73
2022/03/20 01:38:45;;;;;;;9.07;5.80;;;3.90;99.90;;;;;;5027633;28;20037;-74
2022/03/20 01:41:10;;;;;;;8.07;4.32;;;3.90;99.90;;;;;;5027314;28;20064;-74
2022/03/20 01:43:38;;;;;;;10.07;5.28;;;3.80;99.90;;;;;;5025009;28;20018;-73
2022/03/20 01:46:04;;;;;;;10.65;6.72;;;3.80;99.90;;;;;;5032170;28;20135;-73
2022/03/20 01:48:29;;;;;;;11.07;6.15;;;3.80;99.90;;;;;;4999316;28;20068;-74
2022/03/20 01:50:55;;;;;;;11.15;6.63;;;3.80;99.90;;;;;;5028035;28;20076;-74
2022/03/20 01:53:21;;;;;;;11.85;6.07;;;3.80;99.90;;;;;;5030436;28;20028;-74
2022/03/20 01:55:47;;;;;;;8.95;5.30;;;3.80;99.90;;;;;;5010251;28;20452;-74
2022/03/20 01:58:17;;;;;;;8.25;4.90;;;3.80;99.90;;;;;;5027291;28;20022;-74
2022/03/20 02:00:43;;;;;;;11.40;5.32;;;3.80;99.90;;;;;;5023830;28;20512;-73
2022/03/20 02:03:09;;;;;;;9.48;5.47;;;3.80;99.90;;;;;;5027971;28;20030;-73
2022/03/20 02:05:35;;;;;;;9.23;5.35;;;3.90;99.90;;;;;;5009134;28;20037;-74
2022/03/20 02:08:01;;;;;;;10.38;5.07;;;3.80;99.90;;;;;;5029475;28;20031;-74
2022/03/20 02:10:35;;;;;;;10.55;5.13;;;3.80;99.90;;;;;;5024355;28;20060;-74
2022/03/20 02:13:02;;;;;;;8.75;5.07;;;3.80;99.90;;;;;;5006340;28;20029;-74
2022/03/20 02:15:27;;;;;;;9.13;5.30;;;3.80;99.90;;;;;;5026143;28;20500;-73
2022/03/20 02:17:56;;;;;;;8.98;5.30;;;3.80;99.90;;;;;;5027829;28;20025;-74
2022/03/20 02:20:22;;;;;;;7.47;3.60;;;3.90;99.90;;;;;;5029466;28;20488;-74
2022/03/20 02:22:48;;;;;;;7.75;4.00;;;3.90;99.90;;;;;;5028137;28;20040;-73
2022/03/20 02:25:16;;;;;;;8.18;3.38;;;3.80;99.90;;;;;;5031536;28;20496;-73
2022/03/20 02:27:44;;;;;;;7.75;4.13;;;3.80;99.90;;;;;;5040273;28;20030;-75
2022/03/20 02:30:13;;;;;;;6.68;3.35;;;3.90;99.90;;;;;;5025990;28;20022;-73
2022/03/20 02:32:44;;;;;;;8.95;4.03;;;3.90;99.90;;;;;;5024703;28;20030;-74
2022/03/20 02:35:15;;;;;;;7.97;3.60;;;3.90;99.90;;;;;;5044028;28;20021;-74
2022/03/20 02:37:42;;;;;;;;;;;3.90;99.90;;;;;;5024851;28;20079;-73
2022/03/20 02:40:08;;;;;;;8.00;4.10;;;3.90;99.90;;;;;;5027857;28;19917;-74
2022/03/20 02:42:35;;;;;;;6.70;3.92;;;3.90;99.90;;;;;;5026658;28;20478;-74
2022/03/20 02:45:10;;;;;;;6.25;3.40;;;3.90;99.90;;;;;;5027394;28;20082;-73
2022/03/20 02:47:38;;;;;;;5.82;3.00;;;3.90;99.90;;;;;;5043827;28;20041;-74
2022/03/20 02:50:24;;;;;;;5.63;2.53;;;3.80;99.90;;;;;;5028226;28;20037;-74
2022/03/20 02:52:59;;;;;;;6.10;2.50;;;3.80;99.90;;;;;;5044782;28;20155;-73
2022/03/20 02:55:27;;;;;;;5.68;2.67;;;3.70;99.90;;;;;;5025723;28;20083;-73
2022/03/20 02:57:56;;;;;;;4.25;2.50;;;3.80;99.90;;;;;;5032946;28;20470;-73
2022/03/20 03:00:25;;;;;;;5.40;3.15;;;3.70;99.90;;;;;;5031190;28;20083;-74
2022/03/20 03:02:54;;;;;;;5.70;3.20;;;3.70;99.90;;;;;;5031872;28;20691;-73
2022/03/20 03:05:22;;;;;;;5.63;3.08;;;3.70;99.90;;;;;;5030376;28;20117;-73
2022/03/20 03:10:57;;;;;;;9.57;3.88;;;3.70;99.90;;;;;;5029919;28;20052;-74
2022/03/20 03:13:34;;;;;;;6.93;3.45;;;3.70;99.90;;;;;;5027018;28;20033;-73
2022/03/20 03:16:03;;;;;;;9.07;3.25;;;3.70;99.90;;;;;;5046460;28;20060;-74
2022/03/20 03:18:29;;;;;;;5.57;3.22;;;3.60;99.90;;;;;;5013894;28;20038;-73
2022/03/20 03:20:55;;;;;;;8.95;3.78;;;3.60;99.90;;;;;;5034723;28;20021;-74
2022/03/20 03:23:21;;;;;;;9.52;4.50;;;3.60;99.90;;;;;;5013688;28;20033;-73
2022/03/20 03:25:47;;;;;;;8.30;4.22;;;3.60;99.90;;;;;;5013019;28;20033;-73
2022/03/20 03:28:13;;;;;;;8.90;4.03;;;3.50;99.90;;;;;;5012042;28;20109;-73
2022/03/20 03:30:43;;;;;;;8.68;4.15;;;3.60;99.90;;;;;;5029280;28;20120;-74
2022/03/20 03:33:10;;;;;;;7.40;3.58;;;3.50;99.90;;;;;;5043326;28;20037;-74
2022/03/20 03:35:42;;;;;;;8.90;4.10;;;3.50;99.90;;;;;;5030218;28;20037;-74
2022/03/20 03:38:10;;;;;;;8.23;3.88;;;3.50;99.90;;;;;;5031344;28;20104;-74
2022/03/20 03:40:37;;;;;;;7.75;4.32;;;3.50;99.90;;;;;;5029835;28;20048;-74
2022/03/20 03:43:03;;;;;;;8.55;5.28;;;3.50;99.90;;;;;;5029506;28;20127;-74
2022/03/20 03:45:29;;;;;;;8.65;5.10;;;3.60;99.90;;;;;;5028383;28;20115;-73
2022/03/20 03:47:55;;;;;;;6.45;4.47;;;3.60;99.90;;;;;;5004762;28;20041;-74
2022/03/20 03:50:22;;;;;;;10.88;5.57;;;3.60;99.90;;;;;;5026736;28;20041;-74
2022/03/20 03:52:48;;;;;;;6.00;4.15;;;3.60;99.90;;;;;;5030058;28;20065;-74
2022/03/20 03:55:14;;;;;;;8.95;5.47;;;3.60;99.90;;;;;;5030093;28;20037;-74
2022/03/20 03:57:48;;;;;;;9.82;5.85;;;3.60;99.90;;;;;;5012282;28;20033;-74
2022/03/20 04:00:15;;;;;;;11.60;5.68;;;3.60;99.90;;;;;;5028036;28;20044;-74
2022/03/20 04:02:48;;;;;;;8.82;5.53;;;3.60;99.90;;;;;;5029346;28;20037;-74
2022/03/20 04:05:15;;;;;;;10.00;4.65;;;3.70;99.90;;;;;;5029344;28;20029;-73
2022/03/20 04:07:41;;;;;;;8.63;4.65;;;3.80;99.90;;;;;;5033057;28;20040;-74
2022/03/20 04:10:07;;;;;;;9.80;5.45;;;3.80;99.90;;;;;;5030203;28;20035;-73
2022/03/20 04:12:37;;;;;;;12.07;6.32;;;3.80;99.90;;;;;;5012620;28;20116;-73
2022/03/20 04:15:04;;;;;;;10.80;6.00;;;3.80;99.90;;;;;;5027722;28;20076;-73
2022/03/20 04:17:30;;;;;;;8.10;5.45;;;3.80;99.90;;;;;;5032715;28;20472;-73
2022/03/20 04:19:57;;;;;;;8.77;4.60;;;3.90;99.90;;;;;;5030459;28;20045;-73
2022/03/20 04:22:24;;;;;;;11.13;6.07;;;3.90;99.90;;;;;;5028504;28;20029;-73
2022/03/20 04:24:50;;;;;;;13.50;5.85;;;3.90;99.90;;;;;;5029868;28;20241;-73
2022/03/20 04:27:16;;;;;;;11.05;5.85;;;3.90;99.90;;;;;;5030227;28;20059;-73
2022/03/20 04:29:42;;;;;;;10.18;4.95;;;3.90;99.90;;;;;;5030091;28;20031;-73
2022/03/20 04:32:11;;;;;;;10.00;5.18;;;3.90;99.90;;;;;;5029085;28;20021;-75
2022/03/20 04:34:38;;;;;;;8.13;5.68;;;3.90;99.90;;;;;;5028995;28;20069;-73
2022/03/20 04:37:06;;;;;;;9.50;5.63;;;3.90;99.90;;;;;;5027383;28;20051;-73
2022/03/20 04:39:33;;;;;;;10.90;5.88;;;4.00;99.90;;;;;;5010722;28;20091;-73
2022/03/20 04:41:59;;;;;;;11.00;5.90;;;4.00;99.90;;;;;;5029495;28;20037;-73
2022/03/20 04:44:25;;;;;;;10.63;5.45;;;4.00;99.90;;;;;;5024254;28;20121;-73
2022/03/20 04:46:51;;;;;;;10.00;6.40;;;4.00;99.90;;;;;;5027434;28;20125;-73
2022/03/20 05:00:15;;;;;;;11.30;6.57;;;4.10;99.90;;;;;;5029547;28;20063;-74
2022/03/20 05:02:41;;;;;;;9.48;5.25;;;4.00;99.90;;;;;;5031286;28;20104;-73
2022/03/20 05:05:09;;;;;;;9.90;6.20;;;4.10;99.90;;;;;;5027808;28;20176;-73
2022/03/20 05:07:35;;;;;;;9.98;5.40;;;4.10;99.90;;;;;;5011475;28;20623;-73
2022/03/20 05:15:30;;;;;;;8.70;5.43;;;4.00;99.90;;;;;;5029043;28;20076;-75
2022/03/20 05:17:57;;;;;;;10.13;6.28;;;4.00;99.90;;;;;;5028233;28;20053;-73
2022/03/20 05:20:23;;;;;;;9.30;5.10;;;4.10;99.90;;;;;;5023692;28;20056;-73
2022/03/20 05:22:50;;;;;;;8.90;5.20;;;4.00;99.90;;;;;;5011472;28;20025;-73
2022/03/20 05:25:17;;;;;;;9.25;4.85;;;4.00;99.90;;;;;;5030302;28;20025;-73
2022/03/20 05:27:43;;;;;;;7.88;5.28;;;4.00;99.90;;;;;;5007652;28;20030;-73
2022/03/20 05:30:10;;;;;;;12.13;7.03;;;4.00;99.90;;;;;;5032053;28;20084;-73
2022/03/20 05:32:38;;;;;;;12.27;6.72;;;4.00;99.90;;;;;;5027652;28;20029;-73
2022/03/20 05:35:11;;;;;;;9.60;6.38;;;4.00;99.90;;;;;;5010948;28;20037;-75
2022/03/20 05:37:37;;;;;;;10.48;6.20;;;4.10;99.90;;;;;;5028287;28;20033;-75
2022/03/20 05:40:03;;;;;;;10.68;5.53;;;4.00;99.90;;;;;;5030692;28;20044;-73
2022/03/20 05:42:29;;;;;;;10.38;6.45;;;4.00;99.90;;;;;;5027818;28;20029;-73
2022/03/20 05:44:55;;;;;;;10.98;6.55;;;4.00;99.90;;;;;;5027459;28;20032;-74
2022/03/20 05:47:21;;;;;;;9.30;5.78;;;4.00;99.90;;;;;;5027653;28;20042;-74
2022/03/20 05:49:46;;;;;;;12.07;6.65;;;4.00;99.90;;;;;;5028279;28;20132;-76
2022/03/20 05:52:13;;;;;;;8.27;5.25;;;4.00;99.90;;;;;;5022818;28;20030;-73
2022/03/20 05:54:39;;;;;;;9.15;5.43;;;4.00;99.90;;;;;;5028008;28;21102;-72
2022/03/20 05:59:52;;;;;;;10.20;5.10;;;4.00;99.90;;;;;;5029043;28;20080;-73
2022/03/20 06:02:19;;;;;;;12.43;6.13;;;4.00;99.90;;;;;;5026986;28;20029;-74
2022/03/20 06:04:45;;;;;;;11.55;6.45;;;4.00;99.90;;;;;;5030021;28;20120;-74
2022/03/20 06:07:10;;;;;;;9.70;5.32;;;4.00;99.90;;;;;;5026991;28;20104;-74
2022/03/20 06:09:37;;;;;;;9.20;5.68;;;4.10;99.90;;;;;;5030706;28;20482;-73
2022/03/20 06:12:03;;;;;;;10.35;5.80;;;4.10;99.90;;;;;;5032776;28;20093;-74
2022/03/20 06:14:29;;;;;;;13.55;5.65;;;4.10;99.90;;;;;;5027177;28;20026;-73
2022/03/20 06:16:54;;;;;;;8.50;5.50;;;4.20;99.90;;;;;;5024871;28;20033;-74
2022/03/20 06:19:20;;;;;;;8.05;5.10;;;4.20;99.90;;;;;;5026608;28;20045;-73
2022/03/20 06:21:46;;;;;;;9.60;5.65;;;4.20;99.90;;;;;;5023530;28;20382;-74
2022/03/20 06:24:12;;;;;;;9.32;5.28;;;4.10;99.90;;;;;;5030892;28;20036;-74
2022/03/20 06:26:38;;;;;;;10.10;5.80;;;4.20;99.90;;;;;;5035975;28;20116;-74
2022/03/20 06:29:05;;;;;;;9.43;6.05;;;4.20;99.90;;;;;;5030315;28;20079;-74
2022/03/20 06:31:31;;;;;;;7.60;4.28;;;4.20;99.90;;;;;;5030718;28;20061;-73
2022/03/20 06:33:58;;;;;;;10.00;6.03;;;4.20;99.90;;;;;;5031338;28;20487;-74
2022/03/20 06:36:24;;;;;;;9.25;5.45;;;4.10;99.90;;;;;;5031165;28;20055;-74
2022/03/20 06:38:49;;;;;;;11.50;5.95;;;4.10;99.90;;;;;;5031490;28;20053;-74
2022/03/20 06:41:15;;;;;;;9.95;5.82;;;4.10;99.90;;;;;;5028929;28;20052;-74
2022/03/20 06:43:40;;;;;;;9.38;5.35;;;4.10;99.90;;;;;;5031813;28;20442;-73
2022/03/20 06:46:07;;;;;;;8.75;5.18;;;4.10;99.90;;;;;;5013990;28;20633;-73
2022/03/20 06:48:33;;;;;;;8.73;4.70;;;4.10;99.90;;;;;;5026787;28;20062;-73
2022/03/20 06:51:00;;;;;;;10.32;4.93;;;4.10;99.90;;;;;;5029091;28;20047;-73
2022/03/20 06:53:26;;;;;;;8.35;4.97;;;4.20;99.90;;;;;;5003375;28;20482;-74
2022/03/20 06:55:52;;;;;;;11.65;5.72;;;4.20;99.90;;;;;;5033685;28;20115;-73
2022/03/20 06:58:18;;;;;;;11.95;6.50;;;4.20;99.90;;;;;;5017458;28;20029;-73
2022/03/20 07:00:46;;;;;;;9.82;5.80;;;4.10;99.90;;;;;;5020154;28;20061;-73
2022/03/20 07:03:11;;;;;;;9.77;5.18;;;4.10;99.90;;;;;;5017442;28;20025;-74
2022/03/20 07:05:37;;;;;;;9.25;6.28;;;4.00;99.90;;;;;;4998966;28;20378;-74
2022/03/20 07:08:05;;;;;;;9.30;5.07;;;4.00;99.90;;;;;;5012324;28;20034;-74
2022/03/20 07:10:31;;;;;;;12.43;7.15;;;4.00;99.90;;;;;;5001447;28;20097;-73
2022/03/20 07:15:44;;;;;;;10.27;6.43;;;4.20;99.90;;;;;;5016094;28;20041;-74
2022/03/20 07:18:11;;;;;;;10.88;6.65;;;4.40;99.90;;;;;;5017407;28;20061;-73
2022/03/20 07:20:43;;;;;;;11.05;6.57;;;4.50;99.90;;;;;;5018103;28;20304;-74
2022/03/20 07:23:10;;;;;;;13.98;8.23;;;4.60;99.90;;;;;;5018636;28;20116;-73
2022/03/20 07:31:06;;;;;;;15.18;8.68;;;4.80;99.90;;;;;;5020540;28;20041;-74
2022/03/20 07:33:33;;;;;;;12.40;8.23;;;4.90;99.90;;;;;;5019012;28;20095;-74
2022/03/20 07:35:59;;;;;;;12.10;8.10;;;5.00;99.90;;;;;;5011548;28;20037;-73
2022/03/20 07:38:26;;;;;;;14.75;8.52;;;5.10;99.90;;;;;;5019273;28;20095;-76
2022/03/20 07:40:52;;;;;;;12.25;8.57;;;5.20;99.90;;;;;;5034957;28;20041;-73
2022/03/20 07:43:18;;;;;;;14.90;9.15;;;5.30;99.90;;;;;;5019865;28;20569;-74
2022/03/20 07:45:44;;;;;;;12.45;8.63;;;5.30;99.90;;;;;;5015218;28;20065;-74
2022/03/20 07:48:10;;;;;;;14.05;8.30;;;5.40;99.90;;;;;;5016335;28;20032;-76
2022/03/20 07:50:36;;;;;;;13.45;8.15;;;5.50;99.90;;;;;;5023773;28;20028;-75
2022/03/20 07:53:01;;;;;;;15.35;8.80;;;5.60;99.90;;;;;;5019276;28;20048;-74
2022/03/20 07:55:28;;;;;;;15.70;10.15;;;5.70;99.90;;;;;;5005007;28;20188;-74
2022/03/20 07:57:54;;;;;;;16.52;9.98;;;5.70;99.90;;;;;;5018244;28;20375;-74
2022/03/20 08:00:21;;;;;;;16.50;10.98;;;5.80;99.90;;;;;;5017367;28;20060;-74
2022/03/20 08:02:48;;;;;;;15.57;10.07;;;5.80;99.90;;;;;;5017004;28;20033;-74
2022/03/20 08:05:13;;;;;;;16.88;9.85;;;5.70;99.90;;;;;;5016280;28;20044;-74
2022/03/20 08:07:39;;;;;;;17.85;11.07;;;5.80;99.90;;;;;;5033534;28;20029;-73
2022/03/20 08:10:09;;;;;;;16.48;10.25;;;5.90;99.90;;;;;;5024401;28;20584;-75
2022/03/20 08:12:35;;;;;;;;;;;6.00;99.90;;;;;;5011055;28;20059;-74
2022/03/20 08:15:02;;;;;;;13.32;9.00;;;6.00;99.90;;;;;;5017718;28;20015;-74
2022/03/20 08:17:29;;;;;;;14.23;9.38;;;6.00;99.90;;;;;;5031014;28;20022;-74
2022/03/20 08:19:58;;;;;;;13.02;8.00;;;6.00;99.90;;;;;;5016168;28;20729;-74
2022/03/20 08:22:27;;;;;;;15.25;10.20;;;6.00;99.90;;;;;;5013595;28;20116;-74
2022/03/20 08:24:53;;;;;;;13.18;7.97;;;6.30;99.90;;;;;;5032756;28;20124;-74
2022/03/20 08:27:20;;;;;;;15.73;9.50;;;6.50;99.90;;;;;;5022794;28;20033;-74
2022/03/20 08:29:46;;;;;;;17.80;10.55;;;6.50;99.90;;;;;;5019080;28;20037;-74
2022/03/20 08:32:12;;;;;;;19.17;10.85;;;6.80;99.90;;;;;;5010425;28;20528;-74
2022/03/20 08:34:37;;;;;;;17.38;10.82;;;7.00;99.90;;;;;;5018652;28;20064;-74
2022/03/20 08:37:03;;;;;;;16.60;11.93;;;7.00;99.90;;;;;;5017544;28;20508;-74
2022/03/20 08:39:29;;;;;;;15.70;10.68;;;7.10;99.90;;;;;;4994569;28;20045;-75
2022/03/20 08:41:54;;;;;;;17.08;11.38;;;7.00;99.90;;;;;;5019739;28;20398;-75
2022/03/20 08:44:20;;;;;;;17.17;10.50;;;7.00;99.90;;;;;;5016883;28;20067;-74
2022/03/20 08:46:45;;;;;;;15.00;9.65;;;7.20;99.90;;;;;;5017617;28;20056;-75
2022/03/20 08:49:11;;;;;;;18.52;11.95;;;7.00;99.90;;;;;;5016406;28;20053;-75
2022/03/20 08:51:40;;;;;;;18.67;11.95;;;6.80;99.90;;;;;;5017686;28;20698;-75
2022/03/20 08:54:07;;;;;;;19.57;11.30;;;6.80;99.90;;;;;;5017721;28;20112;-75
2022/03/20 08:56:33;;;;;;;15.48;10.43;;;6.90;99.90;;;;;;5032651;28;20083;-75
2022/03/20 08:58:59;;;;;;;15.93;10.60;;;6.80;99.90;;;;;;5013457;28;20449;-75
2022/03/20 09:01:25;;;;;;;18.15;10.82;;;6.90;99.90;;;;;;5017663;28;20109;-75
2022/03/20 09:03:52;;;;;;;14.60;9.68;;;7.00;99.90;;;;;;5020348;28;20036;-75
2022/03/20 09:06:19;;;;;;;15.40;10.02;;;7.00;99.90;;;;;;5022058;28;20041;-75
2022/03/20 09:08:45;;;;;;;15.30;9.18;;;7.20;99.90;;;;;;5017636;28;20041;-75
2022/03/20 09:11:10;;;;;;;12.57;8.45;;;7.30;99.90;;;;;;5009615;28;20037;-75
2022/03/20 09:13:36;;;;;;;14.63;10.95;;;7.30;99.90;;;;;;5012657;28;20040;-75
2022/03/20 09:19:08;;;;;;;15.07;10.40;;;7.40;99.90;;;;;;5012468;28;20052;-75
2022/03/20 09:21:35;;;;;;;16.52;11.00;;;7.50;99.90;;;;;;5015710;28;20048;-75
2022/03/20 09:24:01;;;;;;;13.30;8.75;;;7.50;99.90;;;;;;4996103;28;20034;-75
2022/03/20 09:26:28;;;;;;;16.90;11.50;;;7.50;99.90;;;;;;5017930;28;20320;-75
2022/03/20 09:28:54;;;;;;;15.10;10.07;;;7.60;99.90;;;;;;5031650;28;20034;-75
2022/03/20 09:31:20;;;;;;;15.35;10.57;;;7.50;99.90;;;;;;5015817;28;20473;-76
2022/03/20 09:33:46;;;;;;;17.77;11.88;;;7.60;99.90;;;;;;5017046;28;20091;-75
2022/03/20 09:36:13;;;;;;;14.05;9.88;;;7.90;99.90;;;;;;5011829;28;20647;-76
2022/03/20 09:38:39;;;;;;;19.23;12.05;;;8.30;99.90;;;;;;5016765;28;20428;-75
2022/03/20 09:41:08;;;;;;;15.13;9.98;;;8.10;99.90;;;;;;5015997;28;20501;-77
2022/03/20 09:43:36;;;;;;;15.27;10.40;;;7.90;99.90;;;;;;5010197;28;20129;-75
2022/03/20 09:46:02;;;;;;;19.42;11.35;;;8.00;99.90;;;;;;5011290;28;20049;-75
2022/03/20 09:48:30;;;;;;;16.20;10.43;;;8.30;99.90;;;;;;5034284;28;20044;-75
2022/03/20 09:50:58;;;;;;;17.05;11.45;;;8.70;99.90;;;;;;5032431;28;20064;-75
2022/03/20 09:53:24;;;;;;;16.13;9.95;;;8.80;99.90;;;;;;5000553;28;20033;-76
2022/03/20 09:55:51;;;;;;;14.63;9.98;;;8.70;99.90;;;;;;5035040;28;20040;-76
2022/03/20 09:58:24;;;;;;;17.15;10.77;;;8.60;99.90;;;;;;5021414;28;20025;-75
2022/03/20 10:00:49;;;;;;;18.33;10.60;;;8.60;99.90;;;;;;5023895;28;20044;-75
2022/03/20 10:03:17;;;;;;;16.35;10.30;;;9.00;99.90;;;;;;5023114;28;20081;-75
2022/03/20 10:05:43;;;;;;;16.15;11.20;;;9.40;99.90;;;;;;5023836;28;20531;-75
2022/03/20 10:08:16;;;;;;;15.15;10.70;;;9.60;99.90;;;;;;5022467;28;20474;-76
2022/03/20 10:10:42;;;;;;;13.30;10.43;;;10.00;99.90;;;;;;5020801;28;20436;-76
2022/03/20 10:13:12;;;;;;;18.52;12.48;;;10.00;99.90;;;;;;5021506;28;20034;-76
2022/03/20 10:15:39;;;;;;;;;;;9.90;99.90;;;;;;5022140;28;20125;-75
2022/03/20 10:18:16;;;;;;;18.33;11.48;;;9.80;99.90;;;;;;5021844;28;19924;-76
2022/03/20 10:20:47;;;;;;;16.60;11.57;;;9.70;99.90;;;;;;5023774;28;20056;-76
2022/03/20 10:23:32;;;;;;;15.80;10.68;;;9.60;99.90;;;;;;5015294;28;20064;-75
2022/03/20 10:25:59;;;;;;;15.63;10.43;;;9.60;99.90;;;;;;5022714;28;20366;-76
2022/03/20 10:28:34;;;;;;;17.58;11.68;;;9.70;99.90;;;;;;5020797;28;20030;-76
2022/03/20 10:31:02;;;;;;;17.88;12.93;;;9.70;99.90;;;;;;5005281;28;20025;-76
2022/03/20 10:33:28;;;;;;;16.73;11.43;;;9.80;99.90;;;;;;5020401;28;20037;-75
2022/03/20 10:36:13;;;;;;;17.10;12.27;;;10.10;99.90;;;;;;5012687;28;20029;-76
2022/03/20 10:38:41;;;;;;;20.65;13.80;;;10.10;99.90;;;;;;5016071;28;20029;-75
2022/03/20 10:41:34;;;;;;;17.67;12.48;;;10.20;99.90;;;;;;5000153;28;20503;-76
2022/03/20 10:44:00;;;;;;;20.30;13.18;;;10.10;99.90;;;;;;5019083;28;20068;-75
2022/03/20 10:46:31;;;;;;;19.42;13.43;;;9.90;99.90;;;;;;5023746;28;20136;-75
2022/03/20 10:49:02;;;;;;;19.65;14.40;;;9.60;99.90;;;;;;5020021;28;20087;-76
2022/03/20 10:51:37;;;;;;;17.23;11.85;;;9.60;99.90;;;;;;5005016;28;20041;-76
2022/03/20 10:54:06;;;;;;;21.17;13.23;;;9.40;99.90;;;;;;5017982;28;20038;-76
2022/03/20 10:56:32;;;;;;;20.88;13.65;;;9.30;99.90;;;;;;5026677;28;20029;-75
2022/03/20 10:58:58;;;;;;;17.00;12.40;;;9.00;99.90;;;;;;5038475;28;20033;-77
2022/03/20 11:01:35;;;;;;;16.65;12.38;;;9.10;99.90;;;;;;4999621;28;20041;-76
2022/03/20 11:04:03;;;;;;;19.73;12.85;;;9.20;99.90;;;;;;5017783;28;20033;-76
2022/03/20 11:06:29;;;;;;;18.90;11.98;;;9.20;99.90;;;;;;5034627;28;20057;-76
2022/03/20 11:08:56;;;;;;;15.40;11.13;;;9.20;99.90;;;;;;5037127;28;20083;-76
2022/03/20 11:11:24;;;;;;;19.33;12.45;;;9.20;99.90;;;;;;5020223;28;20377;-77
2022/03/20 11:13:52;;;;;;;15.85;11.07;;;9.20;99.90;;;;;;5020058;28;20477;-75
2022/03/20 11:16:23;;;;;;;18.10;12.85;;;9.20;99.90;;;;;;5013260;28;20086;-76
2022/03/20 11:18:52;;;;;;;19.33;12.95;;;9.20;99.90;;;;;;5035714;28;20030;-77
2022/03/20 11:21:26;;;;;;;18.30;13.05;;;9.20;99.90;;;;;;5000187;28;20076;-76
2022/03/20 11:23:53;;;;;;;15.85;11.02;;;9.20;99.90;;;;;;5035316;28;20128;-76
2022/03/20 11:26:21;;;;;;;15.32;10.73;;;9.20;99.90;;;;;;5017371;28;20064;-75
2022/03/20 11:28:53;;;;;;;17.27;10.98;;;9.30;99.90;;;;;;5033491;28;20033;-77
2022/03/20 11:31:20;;;;;;;13.32;9.75;;;9.20;99.90;;;;;;5019058;28;20083;-76
2022/03/20 11:33:47;;;;;;;11.70;7.90;;;9.10;99.90;;;;;;5017394;28;20132;-76
2022/03/20 11:36:13;;;;;;;14.45;10.45;;;9.10;99.90;;;;;;5018595;28;20038;-76
2022/03/20 11:38:38;;;;;;;14.27;10.90;;;9.10;99.90;;;;;;5032290;28;20091;-76
2022/03/20 11:41:14;;;;;;;15.02;10.25;;;9.00;99.90;;;;;;5011462;28;20033;-76
2022/03/20 11:43:45;;;;;;;15.35;11.20;;;9.00;99.90;;;;;;5001226;28;20025;-76
2022/03/20 11:46:29;;;;;;;13.23;9.02;;;9.00;99.90;;;;;;4998479;28;20061;-75
2022/03/20 11:49:13;;;;;;;16.70;11.07;;;9.10;99.90;;;;;;5014518;28;20149;-76
2022/03/20 11:51:52;;;;;;;15.90;10.00;;;9.10;99.90;;;;;;5013072;28;20092;-76
2022/03/20 11:54:18;;;;;;;17.15;9.90;;;9.20;99.90;;;;;;5000229;28;20482;-75
2022/03/20 11:56:45;;;;;;;17.55;12.00;;;9.20;99.90;;;;;;5016639;28;20061;-75
2022/03/20 11:59:45;;;;;;;13.88;9.02;;;9.30;99.90;;;;;;5016773;28;20490;-75
2022/03/20 12:02:16;;;;;;;14.52;9.55;;;9.30;99.90;;;;;;5016615;28;20341;-75
2022/03/20 12:05:19;;;;;;;14.85;9.55;;;9.40;99.90;;;;;;5017212;28;20556;-76
2022/03/20 12:08:05;;;;;;;13.80;9.10;;;9.40;99.90;;;;;;5018852;28;20742;-76
2022/03/20 12:10:56;;;;;;;14.43;9.25;;;9.40;99.90;;;;;;5019759;28;20986;-75
2022/03/20 12:13:43;;;;;;;12.77;8.85;;;9.60;99.90;;;;;;5018160;28;20026;-76
2022/03/20 12:16:09;;;;;;;14.45;10.00;;;9.50;99.90;;;;;;5003525;28;20029;-76
2022/03/20 12:19:12;;;;;;;13.40;9.18;;;9.40;99.90;;;;;;5020471;28;20025;-76
2022/03/20 12:21:53;;;;;;;15.32;10.38;;;9.50;99.90;;;;;;5017081;28;20037;-76
2022/03/20 12:24:34;;;;;;;14.57;9.63;;;9.40;99.90;;;;;;5017997;28;20485;-77
2022/03/20 12:27:22;;;;;;;13.57;9.25;;;9.40;99.90;;;;;;5018788;28;20136;-75
2022/03/20 12:29:59;;;;;;;10.13;7.80;;;9.40;99.90;;;;;;5017716;28;20084;-76
2022/03/20 12:32:26;;;;;;;12.68;9.13;;;9.30;99.90;;;;;;4995124;28;20061;-76
2022/03/20 12:34:55;;;;;;;11.45;8.07;;;9.40;99.90;;;;;;4999317;28;20037;-75
2022/03/20 12:37:33;;;;;;;13.80;9.80;;;9.40;99.90;;;;;;5013092;28;20043;-75
2022/03/20 12:40:12;;;;;;;12.85;8.25;;;9.40;99.90;;;;;;5017394;28;20168;-77
2022/03/20 12:42:43;;;;;;;12.00;8.27;;;9.30;99.90;;;;;;5012072;28;20091;-75
2022/03/20 12:45:14;;;;;;;12.07;8.02;;;9.30;99.90;;;;;;5016722;28;20120;-75
2022/03/20 12:47:56;;;;;;;12.27;8.88;;;9.20;99.90;;;;;;5016153;28;20053;-76
2022/03/20 12:50:28;;;;;;;12.65;8.35;;;9.10;99.90;;;;;;4995935;28;20037;-75
2022/03/20 12:53:21;;;;;;;12.48;8.55;;;9.10;99.90;;;;;;4998123;28;20139;-76
2022/03/20 12:55:54;;;;;;;11.23;8.00;;;9.10;99.90;;;;;;5015552;28;20497;-77
2022/03/20 12:58:20;;;;;;;10.82;8.20;;;9.00;99.90;;;;;;4992992;28;20037;-77
2022/03/20 13:00:47;;;;;;;12.43;8.90;;;9.00;99.90;;;;;;5017033;28;20033;-77
2022/03/20 13:03:15;;;;;;;11.90;8.43;;;8.90;99.90;;;;;;5015670;28;20379;-76
2022/03/20 13:05:52;;;;;;;11.48;8.25;;;8.90;99.90;;;;;;5017111;28;20037;-75
2022/03/20 13:08:28;;;;;;;14.32;9.15;;;8.80;99.90;;;;;;5016153;28;20029;-75
2022/03/20 13:10:56;;;;;;;10.85;6.68;;;8.90;99.90;;;;;;5018067;28;20044;-76
2022/03/20 13:13:33;;;;;;;13.23;8.07;;;8.80;99.90;;;;;;5031956;28;20045;-76
2022/03/20 13:15:59;;;;;;;24.30;16.92;;;8.70;99.90;;;;;;5017107;28;20026;-76
2022/03/20 13:18:26;;;;;;;23.60;17.63;;;8.30;99.90;;;;;;5032226;28;20079;-77
2022/03/20 13:20:53;;;;;;;22.23;16.30;;;8.10;99.90;;;;;;5018020;28;20037;-76
2022/03/20 13:23:21;;;;;;;20.73;15.15;;;8.20;99.90;;;;;;5019475;28;20029;-77
2022/03/20 13:25:50;;;;;;;20.17;14.40;;;8.10;99.90;;;;;;5018765;28;20037;-76
2022/03/20 13:28:28;;;;;;;21.20;14.13;;;8.10;99.90;;;;;;5012762;28;20116;-76